createdAt,value
2022-08-16T00:01:41.784Z,84.56
2022-08-16T00:04:07.061Z,84.58
2022-08-16T00:06:33.490Z,84.77
2022-08-16T00:08:59.888Z,85.18
2022-08-16T00:11:26.390Z,84.83
2022-08-16T00:13:54.601Z,84.28
2022-08-16T00:17:06.559Z,84.11
2022-08-16T00:18:45.475Z,84.11
2022-08-16T00:21:11.848Z,84.68
2022-08-16T00:23:40.483Z,85.26
2022-08-16T00:26:36.073Z,86.33
2022-08-16T00:28:30.931Z,87.06
2022-08-16T00:30:59.299Z,87.61
2022-08-16T00:33:23.787Z,88.37
2022-08-16T00:35:50.147Z,89.29
2022-08-16T00:38:41.297Z,89.48
2022-08-16T00:40:43.911Z,89.68
2022-08-16T00:43:12.298Z,89.55
2022-08-16T00:45:35.846Z,89.41
2022-08-16T00:48:02.074Z,89.21
2022-08-16T00:50:36.375Z,88.73
2022-08-16T00:52:55.024Z,86.95
2022-08-16T00:55:21.248Z,86.22
2022-08-16T00:58:00.002Z,85.70
2022-08-16T01:00:13.972Z,85.70
2022-08-16T01:02:40.423Z,85.98
2022-08-16T01:05:11.524Z,85.97
2022-08-16T01:07:51.580Z,86.25
2022-08-16T01:09:59.639Z,86.21
2022-08-16T01:12:26.496Z,86.69
2022-08-16T01:14:53.323Z,86.20
2022-08-16T01:17:18.786Z,86.31
2022-08-16T01:19:45.244Z,86.10
2022-08-16T01:22:49.626Z,86.92
2022-08-16T01:24:51.552Z,87.16
2022-08-16T01:27:04.411Z,87.92
2022-08-16T01:29:37.450Z,88.36
2022-08-16T01:31:57.296Z,88.72
2022-08-16T01:34:26.492Z,89.09
2022-08-16T01:36:58.182Z,89.41
2022-08-16T01:39:16.408Z,89.70
2022-08-16T01:41:44.209Z,90.19
2022-08-16T01:44:09.170Z,90.67
2022-08-16T01:46:39.992Z,90.58
2022-08-16T01:49:01.967Z,90.53
2022-08-16T01:51:28.367Z,90.62
2022-08-16T01:53:55.782Z,90.56
2022-08-16T01:56:23.474Z,90.66
2022-08-16T01:58:48.019Z,90.46
2022-08-16T02:01:13.938Z,90.36
2022-08-16T02:03:40.252Z,89.70
2022-08-16T02:06:07.934Z,89.18
2022-08-16T02:08:34.241Z,89.25
2022-08-16T02:10:59.518Z,89.42
2022-08-16T02:13:27.836Z,89.30
2022-08-16T02:15:52.245Z,89.25
2022-08-16T02:18:18.914Z,88.97
2022-08-16T02:20:45.401Z,88.41
2022-08-16T02:23:11.485Z,88.12
2022-08-16T02:25:52.516Z,87.46
2022-08-16T02:28:04.336Z,87.08
2022-08-16T02:30:37.229Z,86.86
2022-08-16T02:32:57.057Z,87.44
2022-08-16T02:35:23.714Z,87.20
2022-08-16T02:37:52.573Z,87.45
2022-08-16T02:40:16.534Z,88.37
2022-08-16T02:42:42.646Z,89.98
2022-08-16T02:45:09.016Z,90.94
2022-08-16T02:48:00.345Z,92.69
2022-08-16T02:50:54.029Z,100.00
2022-08-16T02:52:29.436Z,100.00
2022-08-16T02:54:55.373Z,100.00
2022-08-16T02:57:20.966Z,100.00
2022-08-16T02:59:47.369Z,100.00
2022-08-16T03:02:13.785Z,100.00
2022-08-16T03:04:52.225Z,100.00
2022-08-16T03:07:06.514Z,100.00
2022-08-16T03:09:32.878Z,100.00
2022-08-16T03:11:59.262Z,100.00
2022-08-16T03:14:25.634Z,100.00
2022-08-16T03:16:59.706Z,100.00
2022-08-16T03:19:18.463Z,100.00
2022-08-16T03:21:44.824Z,100.00
2022-08-16T03:24:29.127Z,99.84
2022-08-16T03:26:37.587Z,99.00
2022-08-16T03:29:03.972Z,98.50
2022-08-16T03:31:34.728Z,98.55
2022-08-16T03:33:56.815Z,98.20
2022-08-16T03:36:30.848Z,97.60
2022-08-16T03:38:49.579Z,97.06
2022-08-16T03:41:24.424Z,96.95
2022-08-16T03:43:51.668Z,96.72
2022-08-16T03:46:08.682Z,98.57
2022-08-16T03:48:37.129Z,99.44
2022-08-16T03:51:01.443Z,99.64
2022-08-16T03:53:38.069Z,100.00
2022-08-16T03:55:54.195Z,100.00
2022-08-16T03:58:20.567Z,100.00
2022-08-16T04:00:46.982Z,100.00
2022-08-16T04:03:13.401Z,100.00
2022-08-16T04:05:39.757Z,100.00
2022-08-16T04:08:22.807Z,100.00
2022-08-16T04:10:36.989Z,100.00
2022-08-16T04:13:04.652Z,100.00
2022-08-16T04:15:25.324Z,100.00
2022-08-16T04:17:51.694Z,100.00
2022-08-16T04:20:31.137Z,98.44
2022-08-16T04:22:44.555Z,97.70
2022-08-16T04:25:10.954Z,97.79
2022-08-16T04:27:37.341Z,98.51
2022-08-16T04:30:03.901Z,97.96
2022-08-16T04:32:30.184Z,97.92
2022-08-16T04:34:56.548Z,98.08
2022-08-16T04:37:22.949Z,97.73
2022-08-16T04:39:57.060Z,97.64
2022-08-16T04:42:15.818Z,98.86
2022-08-16T04:44:53.496Z,99.69
2022-08-16T04:47:21.133Z,100.00
2022-08-16T04:49:44.019Z,100.00
2022-08-16T04:52:01.379Z,100.00
2022-08-16T04:54:27.775Z,100.00
2022-08-16T04:56:54.171Z,100.00
2022-08-16T04:59:20.641Z,92.94
2022-08-16T05:01:56.070Z,84.68
2022-08-16T05:04:19.637Z,79.42
2022-08-16T05:06:42.224Z,77.54
2022-08-16T05:09:06.195Z,76.51
2022-08-16T05:11:32.565Z,78.96
2022-08-16T05:14:05.599Z,76.97
2022-08-16T05:16:25.315Z,72.24
2022-08-16T05:18:51.723Z,68.42
2022-08-16T05:21:18.050Z,67.36
2022-08-16T05:23:49.499Z,66.27
2022-08-16T05:26:20.170Z,64.20
2022-08-16T05:28:38.965Z,63.40
2022-08-16T05:31:03.669Z,62.52
2022-08-16T05:33:30.051Z,60.03
2022-08-16T05:35:56.528Z,58.29
2022-08-16T05:38:32.585Z,58.01
2022-08-16T05:40:59.626Z,58.09
2022-08-16T05:43:15.770Z,59.90
2022-08-16T05:45:42.881Z,62.09
2022-08-16T05:48:08.520Z,61.70
2022-08-16T05:50:34.912Z,59.65
2022-08-16T05:53:01.377Z,58.62
2022-08-16T05:55:27.681Z,58.17
2022-08-16T05:57:54.113Z,59.28
2022-08-16T06:00:22.552Z,60.40
2022-08-16T06:02:46.950Z,59.71
2022-08-16T06:05:14.626Z,58.07
2022-08-16T06:07:39.736Z,56.74
2022-08-16T06:10:06.120Z,56.00
2022-08-16T06:12:32.516Z,55.84
2022-08-16T06:14:59.522Z,56.09
2022-08-16T06:17:25.287Z,56.22
2022-08-16T06:19:51.653Z,55.77
2022-08-16T06:22:37.266Z,57.66
2022-08-16T06:24:53.979Z,57.46
2022-08-16T06:27:10.824Z,58.11
2022-08-16T06:29:37.231Z,56.69
2022-08-16T06:32:04.302Z,55.05
2022-08-16T06:34:56.246Z,54.56
2022-08-16T06:36:59.357Z,54.13
2022-08-16T06:39:22.846Z,53.82
2022-08-16T06:41:49.201Z,53.99
2022-08-16T06:44:20.683Z,53.32
2022-08-16T06:46:41.929Z,51.47
2022-08-16T06:49:08.389Z,51.10
2022-08-16T06:51:45.173Z,51.32
2022-08-16T06:54:01.254Z,51.55
2022-08-16T06:56:27.680Z,52.27
2022-08-16T06:58:54.123Z,51.52
2022-08-16T07:01:44.516Z,50.79
2022-08-16T07:03:55.402Z,51.71
2022-08-16T07:06:13.251Z,51.97
2022-08-16T07:08:39.648Z,52.37
2022-08-16T07:11:06.082Z,51.77
2022-08-16T07:14:04.017Z,51.06
2022-08-16T07:15:58.831Z,52.27
2022-08-16T07:18:25.195Z,51.42
2022-08-16T07:20:51.707Z,51.38
2022-08-16T07:23:18.070Z,52.76
2022-08-16T07:25:44.440Z,52.61
2022-08-16T07:28:12.155Z,52.23
2022-08-16T07:30:45.055Z,50.47
2022-08-16T07:33:03.633Z,48.66
2022-08-16T07:35:30.000Z,48.05
2022-08-16T07:37:56.370Z,47.85
2022-08-16T07:40:42.809Z,48.43
2022-08-16T07:42:49.333Z,48.02
2022-08-16T07:45:16.878Z,47.64
2022-08-16T07:47:42.168Z,46.54
2022-08-16T07:50:08.324Z,45.04
2022-08-16T07:52:34.730Z,45.72
2022-08-16T07:55:01.209Z,46.33
2022-08-16T07:57:27.541Z,45.25
2022-08-16T07:59:53.940Z,43.63
2022-08-16T08:02:21.024Z,43.05
2022-08-16T08:04:46.683Z,41.55
2022-08-16T08:07:13.122Z,41.82
2022-08-16T08:09:43.479Z,41.42
2022-08-16T08:12:05.891Z,41.73
2022-08-16T08:14:32.230Z,41.10
2022-08-16T08:16:58.750Z,40.17
2022-08-16T08:19:25.107Z,41.11
2022-08-16T08:22:00.554Z,40.94
2022-08-16T08:24:17.946Z,39.38
2022-08-16T08:26:44.413Z,38.63
2022-08-16T08:29:10.763Z,39.01
2022-08-16T08:31:37.124Z,38.97
2022-08-16T08:34:04.812Z,38.70
2022-08-16T08:36:33.040Z,35.45
2022-08-16T08:38:56.232Z,35.84
2022-08-16T08:41:27.732Z,35.22
2022-08-16T08:43:50.433Z,33.61
2022-08-16T08:46:18.412Z,34.21
2022-08-16T08:48:43.802Z,34.02
2022-08-16T08:51:08.776Z,33.46
2022-08-16T08:53:34.630Z,33.16
2022-08-16T08:56:00.998Z,33.26
2022-08-16T08:58:34.323Z,34.38
2022-08-16T09:00:53.827Z,32.93
2022-08-16T09:03:20.187Z,33.61
2022-08-16T09:05:51.265Z,33.79
2022-08-16T09:08:12.934Z,33.71
2022-08-16T09:10:39.524Z,32.18
2022-08-16T09:13:05.672Z,32.11
2022-08-16T09:15:33.041Z,31.21
2022-08-16T09:17:58.448Z,30.69
2022-08-16T09:20:25.384Z,31.20
2022-08-16T09:22:52.529Z,31.83
2022-08-16T09:25:20.681Z,32.18
2022-08-16T09:27:56.896Z,32.80
2022-08-16T09:30:34.394Z,32.64
2022-08-16T09:32:37.037Z,32.45
2022-08-16T09:35:03.427Z,31.40
2022-08-16T09:37:30.167Z,30.92
2022-08-16T09:39:56.217Z,30.51
2022-08-16T09:42:22.534Z,30.89
2022-08-16T09:45:12.200Z,31.33
2022-08-16T09:47:15.435Z,31.48
2022-08-16T09:49:41.800Z,32.32
2022-08-16T09:52:09.383Z,32.28
2022-08-16T09:54:34.551Z,31.86
2022-08-16T09:57:00.929Z,31.37
2022-08-16T09:59:30.742Z,31.25
2022-08-16T10:01:54.638Z,33.11
2022-08-16T10:04:30.389Z,32.36
2022-08-16T10:06:46.633Z,31.65
2022-08-16T10:09:12.952Z,33.12
2022-08-16T10:11:50.216Z,33.24
2022-08-16T10:14:05.716Z,31.15
2022-08-16T10:16:32.076Z,31.70
2022-08-16T10:19:01.838Z,29.55
2022-08-16T10:21:24.829Z,30.16
2022-08-16T10:23:51.193Z,32.79
2022-08-16T10:27:16.446Z,33.41
2022-08-16T10:28:44.125Z,32.79
2022-08-16T10:31:11.952Z,31.77
2022-08-16T10:33:40.471Z,31.11
2022-08-16T10:36:04.121Z,32.61
2022-08-16T10:38:29.616Z,31.81
2022-08-16T10:40:55.994Z,31.52
2022-08-16T10:43:22.362Z,31.03
2022-08-16T10:46:00.595Z,31.57
2022-08-16T10:48:27.992Z,32.97
2022-08-16T10:50:41.510Z,35.08
2022-08-16T10:53:07.890Z,35.73
2022-08-16T10:55:40.260Z,36.88
2022-08-16T10:58:00.770Z,37.52
2022-08-16T11:00:27.131Z,36.85
2022-08-16T11:02:59.983Z,34.02
2022-08-16T11:05:19.907Z,31.86
2022-08-16T11:07:52.447Z,31.17
2022-08-16T11:10:20.709Z,31.01
2022-08-16T11:12:39.033Z,30.56
2022-08-16T11:15:13.305Z,30.71
2022-08-16T11:17:32.669Z,29.73
2022-08-16T11:20:40.727Z,29.03
2022-08-16T11:22:47.060Z,29.04
2022-08-16T11:25:11.874Z,30.49
2022-08-16T11:27:19.958Z,30.75
2022-08-16T11:29:43.926Z,31.26
2022-08-16T11:32:10.321Z,31.58
2022-08-16T11:35:05.949Z,32.76
2022-08-16T11:37:03.187Z,33.60
2022-08-16T11:39:29.686Z,34.66
2022-08-16T11:41:56.056Z,35.37
2022-08-16T11:44:52.938Z,36.85
2022-08-16T11:46:48.920Z,38.24
2022-08-16T11:49:15.301Z,38.83
2022-08-16T11:51:41.789Z,39.94
2022-08-16T11:54:11.611Z,41.26
2022-08-16T11:56:51.876Z,57.12
2022-08-16T11:59:01.068Z,75.41
2022-08-16T12:01:29.685Z,77.75
2022-08-16T12:03:53.847Z,82.05
2022-08-16T12:06:30.288Z,92.34
2022-08-16T12:08:46.661Z,97.07
2022-08-16T12:11:13.020Z,100.00
2022-08-16T12:13:39.414Z,100.00
2022-08-16T12:16:05.807Z,97.87
2022-08-16T12:18:32.313Z,95.66
2022-08-16T12:20:58.605Z,95.14
2022-08-16T12:23:24.993Z,96.98
2022-08-16T12:25:51.355Z,97.86
2022-08-16T12:28:36.783Z,98.73
2022-08-16T12:30:44.186Z,97.21
2022-08-16T12:33:10.554Z,99.47
2022-08-16T12:35:36.921Z,100.00
2022-08-16T12:38:38.005Z,100.00
2022-08-16T12:40:29.940Z,99.47
2022-08-16T12:42:59.032Z,100.00
2022-08-16T12:45:22.702Z,100.00
2022-08-16T12:47:49.081Z,100.00
2022-08-16T12:50:15.658Z,99.47
2022-08-16T12:52:44.379Z,96.35
2022-08-16T12:55:08.603Z,94.25
2022-08-16T12:57:36.631Z,92.91
2022-08-16T13:00:01.052Z,88.82
2022-08-16T13:02:33.866Z,80.21
2022-08-16T13:04:53.813Z,70.73
2022-08-16T13:07:20.184Z,65.51
2022-08-16T13:09:46.613Z,61.10
2022-08-16T13:12:12.978Z,54.17
2022-08-16T13:14:39.385Z,50.79
2022-08-16T13:17:06.712Z,47.86
2022-08-16T13:20:03.381Z,49.64
2022-08-16T13:21:58.580Z,50.27
2022-08-16T13:24:24.944Z,46.33
2022-08-16T13:26:53.343Z,39.90
2022-08-16T13:29:17.702Z,41.47
2022-08-16T13:31:44.106Z,41.51
2022-08-16T13:34:10.543Z,41.13
2022-08-16T13:36:48.604Z,36.93
2022-08-16T13:39:03.282Z,35.72
2022-08-16T13:41:30.356Z,35.18
2022-08-16T13:43:57.826Z,33.53
2022-08-16T13:46:22.502Z,33.02
2022-08-16T13:48:48.931Z,34.06
2022-08-16T13:51:16.952Z,33.46
2022-08-16T13:53:41.695Z,34.49
2022-08-16T13:56:08.131Z,34.60
2022-08-16T13:58:40.218Z,34.45
2022-08-16T14:01:00.932Z,34.84
2022-08-16T14:03:27.308Z,34.94
2022-08-16T14:05:53.759Z,34.82
2022-08-16T14:08:23.903Z,33.30
2022-08-16T14:10:46.497Z,33.14
2022-08-16T14:13:19.922Z,33.47
2022-08-16T14:15:41.900Z,32.45
2022-08-16T14:18:15.406Z,33.18
2022-08-16T14:20:32.050Z,33.30
2022-08-16T14:22:58.403Z,33.74
2022-08-16T14:25:24.792Z,33.20
2022-08-16T14:27:54.395Z,33.39
2022-08-16T14:30:17.556Z,33.33
2022-08-16T14:32:46.728Z,33.93
2022-08-16T14:35:10.341Z,33.66
2022-08-16T14:37:36.730Z,33.54
2022-08-16T14:40:03.580Z,33.90
2022-08-16T14:42:29.540Z,33.81
2022-08-16T14:44:55.918Z,33.60
2022-08-16T14:47:22.354Z,33.59
2022-08-16T14:49:48.736Z,34.04
2022-08-16T14:52:17.842Z,33.62
2022-08-16T14:54:41.491Z,32.94
2022-08-16T14:57:07.869Z,32.50
2022-08-16T14:59:34.403Z,32.64
2022-08-16T15:02:01.055Z,33.06
2022-08-16T15:04:39.555Z,32.53
2022-08-16T15:06:53.455Z,32.66
2022-08-16T15:09:19.823Z,32.62
2022-08-16T15:11:46.223Z,32.72
2022-08-16T15:14:12.590Z,33.17
2022-08-16T15:16:39.015Z,32.28
2022-08-16T15:19:05.375Z,32.15
2022-08-16T15:21:31.865Z,31.44
2022-08-16T15:23:58.223Z,31.26
2022-08-16T15:26:34.569Z,31.16
2022-08-16T15:28:51.049Z,31.53
2022-08-16T15:31:17.348Z,31.33
2022-08-16T15:33:47.322Z,31.50
2022-08-16T15:36:10.190Z,31.95
2022-08-16T15:39:02.747Z,31.97
2022-08-16T15:41:03.001Z,31.85
2022-08-16T15:43:38.935Z,31.77
2022-08-16T15:45:55.939Z,32.07
2022-08-16T15:48:22.169Z,32.28
2022-08-16T15:50:48.641Z,32.45
2022-08-16T15:53:15.002Z,32.58
2022-08-16T15:55:41.363Z,32.48
2022-08-16T15:58:35.150Z,32.65
2022-08-16T16:00:34.348Z,33.07
2022-08-16T16:03:00.582Z,33.48
2022-08-16T16:05:26.944Z,33.95
2022-08-16T16:07:56.737Z,33.98
2022-08-16T16:10:19.740Z,34.50
2022-08-16T16:12:50.942Z,34.76
2022-08-16T16:15:12.486Z,35.15
2022-08-16T16:17:38.891Z,35.69
2022-08-16T16:20:05.323Z,36.13
2022-08-16T16:22:31.689Z,36.51
2022-08-16T16:24:58.050Z,36.87
2022-08-16T16:27:24.419Z,37.26
2022-08-16T16:29:58.093Z,37.78
2022-08-16T16:32:17.175Z,38.00
2022-08-16T16:34:43.559Z,38.43
2022-08-16T16:37:10.120Z,38.54
2022-08-16T16:39:36.352Z,38.80
2022-08-16T16:42:02.710Z,39.00
2022-08-16T16:44:33.477Z,39.20
2022-08-16T16:46:56.908Z,39.37
2022-08-16T16:49:21.813Z,39.69
2022-08-16T16:51:50.187Z,40.15
2022-08-16T16:54:27.507Z,40.28
2022-08-16T16:56:49.496Z,40.36
2022-08-16T16:59:07.433Z,40.63
2022-08-16T17:01:50.134Z,40.80
2022-08-16T17:04:00.179Z,40.69
2022-08-16T17:06:26.546Z,41.11
2022-08-16T17:08:52.958Z,41.23
2022-08-16T17:11:19.326Z,41.32
2022-08-16T17:13:45.726Z,41.42
2022-08-16T17:16:18.427Z,41.71
2022-08-16T17:19:16.453Z,42.08
2022-08-16T17:21:04.921Z,42.33
2022-08-16T17:23:58.954Z,42.95
2022-08-16T17:25:57.718Z,43.69
2022-08-16T17:28:59.870Z,44.30
2022-08-16T17:30:50.481Z,44.57
2022-08-16T17:33:16.986Z,44.82
2022-08-16T17:35:43.369Z,44.91
2022-08-16T17:38:11.110Z,45.17
2022-08-16T17:40:47.476Z,45.21
2022-08-16T17:43:02.513Z,46.21
2022-08-16T17:45:28.886Z,46.76
2022-08-16T17:47:55.302Z,46.87
2022-08-16T17:50:21.701Z,47.08
2022-08-16T17:52:48.938Z,47.27
2022-08-16T17:55:14.575Z,47.53
2022-08-16T17:57:41.003Z,47.77
2022-08-16T18:00:07.447Z,48.23
2022-08-16T18:02:53.149Z,48.55
2022-08-16T18:05:00.315Z,49.00
2022-08-16T18:07:26.670Z,48.50
2022-08-16T18:09:53.088Z,48.82
2022-08-16T18:12:20.516Z,48.62
2022-08-16T18:14:52.111Z,48.71
2022-08-16T18:17:12.244Z,49.19
2022-08-16T18:19:38.612Z,49.18
2022-08-16T18:22:05.010Z,49.41
2022-08-16T18:24:31.384Z,49.57
2022-08-16T18:27:24.714Z,50.12
2022-08-16T18:29:24.231Z,50.06
2022-08-16T18:31:50.661Z,49.65
2022-08-16T18:34:17.021Z,49.96
2022-08-16T18:36:43.429Z,50.21
2022-08-16T18:39:09.831Z,50.04
2022-08-16T18:41:36.210Z,50.23
2022-08-16T18:44:24.835Z,50.12
2022-08-16T18:46:29.003Z,50.28
2022-08-16T18:48:55.489Z,50.39
2022-08-16T18:51:25.272Z,50.73
2022-08-16T18:53:48.283Z,50.83
2022-08-16T18:56:14.640Z,51.15
2022-08-16T18:58:41.007Z,51.50
2022-08-16T19:01:07.471Z,51.61
2022-08-16T19:03:33.773Z,52.01
2022-08-16T19:06:00.212Z,52.27
2022-08-16T19:08:26.613Z,52.33
2022-08-16T19:10:52.976Z,52.28
2022-08-16T19:13:19.408Z,52.52
2022-08-16T19:15:45.826Z,52.50
2022-08-16T19:18:12.269Z,52.68
2022-08-16T19:20:38.706Z,52.96
2022-08-16T19:23:10.637Z,53.15
2022-08-16T19:25:47.417Z,53.40
2022-08-16T19:27:57.858Z,52.90
2022-08-16T19:30:24.214Z,52.92
2022-08-16T19:32:50.751Z,52.74
2022-08-16T19:35:16.956Z,52.26
2022-08-16T19:37:55.910Z,52.48
2022-08-16T19:40:36.046Z,52.48
2022-08-16T19:42:36.196Z,52.22
2022-08-16T19:45:02.624Z,52.27
2022-08-16T19:47:28.959Z,52.10
2022-08-16T19:49:55.319Z,52.19
2022-08-16T19:52:21.826Z,52.24
2022-08-16T19:54:48.260Z,52.22
2022-08-16T19:57:14.641Z,52.54
2022-08-16T19:59:41.016Z,52.48
2022-08-16T20:02:07.365Z,52.44
2022-08-16T20:04:33.732Z,52.86
2022-08-16T20:07:00.220Z,52.91
2022-08-16T20:09:26.586Z,52.72
2022-08-16T20:11:52.983Z,52.96
2022-08-16T20:14:25.261Z,52.92
2022-08-16T20:16:45.748Z,53.06
2022-08-16T20:19:12.106Z,53.02
2022-08-16T20:21:38.513Z,53.04
2022-08-16T20:24:30.260Z,53.52
2022-08-16T20:26:31.258Z,53.93
2022-08-16T20:28:57.631Z,54.03
2022-08-16T20:31:24.056Z,54.43
2022-08-16T20:33:50.415Z,54.48
2022-08-16T20:36:16.891Z,54.67
2022-08-16T20:38:43.146Z,55.09
2022-08-16T20:41:09.519Z,55.32
2022-08-16T20:43:35.997Z,55.44
2022-08-16T20:46:02.433Z,54.78
2022-08-16T20:48:28.787Z,55.70
2022-08-16T20:50:55.199Z,55.73
2022-08-16T20:53:21.628Z,55.80
2022-08-16T20:55:48.004Z,55.97
2022-08-16T20:58:14.493Z,56.08
2022-08-16T21:00:40.928Z,56.16
2022-08-16T21:03:10.922Z,56.38
2022-08-16T21:05:39.598Z,56.86
2022-08-16T21:08:28.741Z,57.22
2022-08-16T21:10:33.182Z,57.71
2022-08-16T21:12:59.948Z,58.39
2022-08-16T21:15:26.776Z,59.03
2022-08-16T21:17:53.709Z,59.07
2022-08-16T21:20:21.865Z,59.18
2022-08-16T21:22:50.063Z,59.12
2022-08-16T21:25:16.481Z,59.37
2022-08-16T21:28:40.600Z,59.63
2022-08-16T21:30:09.861Z,59.84
2022-08-16T21:32:36.502Z,60.10
2022-08-16T21:35:03.239Z,60.35
2022-08-16T21:37:29.861Z,60.53
2022-08-16T21:39:56.543Z,60.62
2022-08-16T21:42:23.157Z,60.51
2022-08-16T21:44:49.872Z,60.63
2022-08-16T21:47:16.464Z,60.99
2022-08-16T21:49:43.142Z,61.39
2022-08-16T21:52:09.910Z,61.54
2022-08-16T21:54:36.649Z,61.82
2022-08-16T21:57:06.438Z,62.11
2022-08-16T21:59:33.615Z,62.23
2022-08-16T22:02:00.735Z,62.25
2022-08-16T22:04:37.821Z,62.29
2022-08-16T22:06:54.365Z,62.48
2022-08-16T22:09:20.993Z,62.72
2022-08-16T22:11:47.304Z,62.90
2022-08-16T22:14:13.784Z,62.96
2022-08-16T22:16:40.132Z,63.19
2022-08-16T22:19:06.550Z,63.71
2022-08-16T22:21:33.085Z,63.94
2022-08-16T22:23:59.465Z,64.15
2022-08-16T22:26:29.014Z,64.31
2022-08-16T22:28:52.334Z,64.10
2022-08-16T22:31:18.817Z,64.44
2022-08-16T22:33:45.175Z,64.67
2022-08-16T22:36:11.546Z,64.53
2022-08-16T22:38:53.852Z,64.57
2022-08-16T22:41:04.322Z,64.37
2022-08-16T22:43:30.683Z,64.24
2022-08-16T22:45:57.050Z,64.47
2022-08-16T22:48:23.407Z,64.43
2022-08-16T22:50:49.798Z,64.47
2022-08-16T22:53:16.175Z,64.54
2022-08-16T22:55:42.545Z,64.41
2022-08-16T22:58:08.927Z,64.27
2022-08-16T23:00:35.309Z,64.71
2022-08-16T23:03:01.668Z,64.96
2022-08-16T23:05:28.037Z,64.83
2022-08-16T23:07:54.403Z,64.78
2022-08-16T23:10:20.793Z,64.81
2022-08-16T23:12:47.249Z,64.71
2022-08-16T23:15:13.764Z,64.87
2022-08-16T23:17:39.996Z,65.24
2022-08-16T23:20:06.365Z,65.67
2022-08-16T23:22:32.750Z,65.77
2022-08-16T23:24:59.134Z,65.94
2022-08-16T23:27:25.498Z,65.90
2022-08-16T23:29:51.858Z,65.90
2022-08-16T23:32:18.281Z,65.87
2022-08-16T23:34:44.745Z,65.80
2022-08-16T23:37:11.102Z,65.89
2022-08-16T23:39:37.602Z,66.47
2022-08-16T23:42:03.879Z,67.24
2022-08-16T23:44:55.924Z,67.36
2022-08-16T23:46:56.807Z,67.81
2022-08-16T23:50:00.829Z,68.57
2022-08-16T23:51:49.718Z,68.97
2022-08-16T23:54:16.102Z,69.46
2022-08-16T23:56:42.464Z,70.95
2022-08-16T23:59:08.871Z,72.28
